sensor_id;sensor_type;location;lat;lon;timestamp;P1;durP1;ratioP1;P2;durP2;ratioP2
9465;SDS011;4771;48.726;9.006;2023-08-01T00:02:12;5.18;;;3.10;;
9465;SDS011;4771;48.726;9.006;2023-08-01T00:04:39;4.53;;;2.90;;
9465;SDS011;4771;48.726;9.006;2023-08-01T00:07:06;4.35;;;3.15;;
9465;SDS011;4771;48.726;9.006;2023-08-01T00:09:33;6.43;;;3.55;;
9465;SDS011;4771;48.726;9.006;2023-08-01T00:12:02;4.88;;;2.88;;
9465;SDS011;4771;48.726;9.006;2023-08-01T00:14:29;7.63;;;3.45;;
9465;SDS011;4771;48.726;9.006;2023-08-01T00:16:56;5.22;;;3.20;;
9465;SDS011;4771;48.726;9.006;2023-08-01T00:19:23;4.88;;;3.25;;
9465;SDS011;4771;48.726;9.006;2023-08-01T00:21:50;4.88;;;3.50;;
9465;SDS011;4771;48.726;9.006;2023-08-01T00:24:17;5.90;;;3.25;;
9465;SDS011;4771;48.726;9.006;2023-08-01T00:26:44;4.65;;;3.05;;
9465;SDS011;4771;48.726;9.006;2023-08-01T00:29:14;4.78;;;2.92;;
9465;SDS011;4771;48.726;9.006;2023-08-01T00:31:41;4.85;;;3.22;;
9465;SDS011;4771;48.726;9.006;2023-08-01T00:34:08;5.80;;;2.90;;
9465;SDS011;4771;48.726;9.006;2023-08-01T00:36:35;4.10;;;2.83;;
9465;SDS011;4771;48.726;9.006;2023-08-01T00:39:02;4.88;;;3.33;;
9465;SDS011;4771;48.726;9.006;2023-08-01T00:41:29;3.88;;;2.92;;
9465;SDS011;4771;48.726;9.006;2023-08-01T00:43:56;5.70;;;3.10;;
9465;SDS011;4771;48.726;9.006;2023-08-01T00:46:24;4.28;;;3.08;;
9465;SDS011;4771;48.726;9.006;2023-08-01T00:48:51;6.13;;;3.20;;
9465;SDS011;4771;48.726;9.006;2023-08-01T00:51:23;3.85;;;3.03;;
9465;SDS011;4771;48.726;9.006;2023-08-01T00:53:50;4.75;;;3.13;;
9465;SDS011;4771;48.726;9.006;2023-08-01T00:56:18;6.43;;;3.30;;
9465;SDS011;4771;48.726;9.006;2023-08-01T00:58:45;4.93;;;3.15;;
9465;SDS011;4771;48.726;9.006;2023-08-01T01:01:12;5.32;;;3.33;;
9465;SDS011;4771;48.726;9.006;2023-08-01T01:03:41;5.72;;;3.00;;
9465;SDS011;4771;48.726;9.006;2023-08-01T01:06:09;3.55;;;2.80;;
9465;SDS011;4771;48.726;9.006;2023-08-01T01:08:42;4.10;;;3.05;;
9465;SDS011;4771;48.726;9.006;2023-08-01T01:11:09;4.45;;;3.30;;
9465;SDS011;4771;48.726;9.006;2023-08-01T01:13:36;8.32;;;3.45;;
9465;SDS011;4771;48.726;9.006;2023-08-01T01:16:03;5.35;;;3.20;;
9465;SDS011;4771;48.726;9.006;2023-08-01T01:18:30;6.07;;;3.20;;
9465;SDS011;4771;48.726;9.006;2023-08-01T01:20:58;5.15;;;3.00;;
9465;SDS011;4771;48.726;9.006;2023-08-01T01:23:25;4.30;;;3.17;;
9465;SDS011;4771;48.726;9.006;2023-08-01T01:25:53;7.85;;;3.35;;
9465;SDS011;4771;48.726;9.006;2023-08-01T01:28:22;5.20;;;3.30;;
9465;SDS011;4771;48.726;9.006;2023-08-01T01:30:50;5.45;;;3.20;;
9465;SDS011;4771;48.726;9.006;2023-08-01T01:33:19;4.10;;;3.17;;
9465;SDS011;4771;48.726;9.006;2023-08-01T01:35:46;5.43;;;3.22;;
9465;SDS011;4771;48.726;9.006;2023-08-01T01:38:15;6.68;;;3.10;;
9465;SDS011;4771;48.726;9.006;2023-08-01T01:40:43;4.75;;;3.00;;
9465;SDS011;4771;48.726;9.006;2023-08-01T01:43:10;5.22;;;3.30;;
9465;SDS011;4771;48.726;9.006;2023-08-01T01:45:37;5.65;;;3.10;;
9465;SDS011;4771;48.726;9.006;2023-08-01T01:48:04;6.88;;;3.63;;
9465;SDS011;4771;48.726;9.006;2023-08-01T01:50:31;3.78;;;3.17;;
9465;SDS011;4771;48.726;9.006;2023-08-01T01:52:59;5.75;;;3.30;;
9465;SDS011;4771;48.726;9.006;2023-08-01T01:55:27;7.15;;;3.10;;
9465;SDS011;4771;48.726;9.006;2023-08-01T01:57:54;6.13;;;3.60;;
9465;SDS011;4771;48.726;9.006;2023-08-01T02:00:21;7.25;;;3.60;;
9465;SDS011;4771;48.726;9.006;2023-08-01T02:02:48;4.53;;;3.13;;
9465;SDS011;4771;48.726;9.006;2023-08-01T02:05:15;5.55;;;3.30;;
9465;SDS011;4771;48.726;9.006;2023-08-01T02:07:42;7.03;;;3.63;;
9465;SDS011;4771;48.726;9.006;2023-08-01T02:10:10;4.35;;;3.28;;
9465;SDS011;4771;48.726;9.006;2023-08-01T02:12:38;5.95;;;3.65;;
9465;SDS011;4771;48.726;9.006;2023-08-01T02:15:06;5.00;;;3.45;;
9465;SDS011;4771;48.726;9.006;2023-08-01T02:17:33;6.97;;;3.30;;
9465;SDS011;4771;48.726;9.006;2023-08-01T02:20:00;4.00;;;3.20;;
9465;SDS011;4771;48.726;9.006;2023-08-01T02:22:27;7.57;;;3.40;;
9465;SDS011;4771;48.726;9.006;2023-08-01T02:24:54;3.53;;;3.00;;
9465;SDS011;4771;48.726;9.006;2023-08-01T02:27:21;5.35;;;3.38;;
9465;SDS011;4771;48.726;9.006;2023-08-01T02:29:50;6.82;;;3.40;;
9465;SDS011;4771;48.726;9.006;2023-08-01T02:32:17;4.05;;;3.38;;
9465;SDS011;4771;48.726;9.006;2023-08-01T02:34:44;3.80;;;3.10;;
9465;SDS011;4771;48.726;9.006;2023-08-01T02:37:11;4.18;;;3.30;;
9465;SDS011;4771;48.726;9.006;2023-08-01T02:39:38;5.82;;;3.60;;
9465;SDS011;4771;48.726;9.006;2023-08-01T02:42:05;8.20;;;3.67;;
9465;SDS011;4771;48.726;9.006;2023-08-01T02:44:33;3.92;;;3.00;;
9465;SDS011;4771;48.726;9.006;2023-08-01T02:47:01;5.15;;;3.60;;
9465;SDS011;4771;48.726;9.006;2023-08-01T02:49:29;6.47;;;3.40;;
9465;SDS011;4771;48.726;9.006;2023-08-01T02:51:56;3.97;;;3.13;;
9465;SDS011;4771;48.726;9.006;2023-08-01T02:54:23;4.68;;;3.40;;
9465;SDS011;4771;48.726;9.006;2023-08-01T02:56:50;6.53;;;3.28;;
9465;SDS011;4771;48.726;9.006;2023-08-01T02:59:18;5.63;;;3.38;;
9465;SDS011;4771;48.726;9.006;2023-08-01T03:01:45;7.40;;;3.60;;
9465;SDS011;4771;48.726;9.006;2023-08-01T03:04:13;3.85;;;3.35;;
9465;SDS011;4771;48.726;9.006;2023-08-01T03:06:40;6.78;;;3.47;;
9465;SDS011;4771;48.726;9.006;2023-08-01T03:09:07;4.00;;;3.08;;
9465;SDS011;4771;48.726;9.006;2023-08-01T03:11:35;5.63;;;3.78;;
9465;SDS011;4771;48.726;9.006;2023-08-01T03:14:02;3.80;;;3.17;;
9465;SDS011;4771;48.726;9.006;2023-08-01T03:16:30;6.38;;;3.38;;
9465;SDS011;4771;48.726;9.006;2023-08-01T03:18:57;5.68;;;3.30;;
9465;SDS011;4771;48.726;9.006;2023-08-01T03:21:30;5.80;;;3.20;;
9465;SDS011;4771;48.726;9.006;2023-08-01T03:23:58;3.70;;;3.08;;
9465;SDS011;4771;48.726;9.006;2023-08-01T03:26:25;7.13;;;3.80;;
9465;SDS011;4771;48.726;9.006;2023-08-01T03:28:53;4.35;;;3.28;;
9465;SDS011;4771;48.726;9.006;2023-08-01T03:31:21;5.15;;;3.50;;
9465;SDS011;4771;48.726;9.006;2023-08-01T03:33:48;4.03;;;3.05;;
9465;SDS011;4771;48.726;9.006;2023-08-01T03:36:15;5.32;;;3.30;;
9465;SDS011;4771;48.726;9.006;2023-08-01T03:38:44;5.10;;;3.20;;
9465;SDS011;4771;48.726;9.006;2023-08-01T03:41:11;5.32;;;3.40;;
9465;SDS011;4771;48.726;9.006;2023-08-01T03:43:38;4.95;;;3.20;;
9465;SDS011;4771;48.726;9.006;2023-08-01T03:46:06;6.57;;;3.35;;
9465;SDS011;4771;48.726;9.006;2023-08-01T03:48:33;6.82;;;3.08;;
9465;SDS011;4771;48.726;9.006;2023-08-01T03:51:01;4.53;;;2.78;;
9465;SDS011;4771;48.726;9.006;2023-08-01T03:53:29;4.35;;;2.83;;
9465;SDS011;4771;48.726;9.006;2023-08-01T03:55:57;5.90;;;3.50;;
9465;SDS011;4771;48.726;9.006;2023-08-01T03:58:24;4.97;;;2.75;;
9465;SDS011;4771;48.726;9.006;2023-08-01T04:00:51;3.47;;;2.60;;
9465;SDS011;4771;48.726;9.006;2023-08-01T04:03:18;5.85;;;3.22;;
9465;SDS011;4771;48.726;9.006;2023-08-01T04:05:46;4.47;;;2.92;;
9465;SDS011;4771;48.726;9.006;2023-08-01T04:08:13;4.57;;;3.08;;
9465;SDS011;4771;48.726;9.006;2023-08-01T04:10:40;4.93;;;2.90;;
9465;SDS011;4771;48.726;9.006;2023-08-01T04:13:09;6.55;;;3.53;;
9465;SDS011;4771;48.726;9.006;2023-08-01T04:15:36;6.28;;;2.75;;
9465;SDS011;4771;48.726;9.006;2023-08-01T04:18:03;5.82;;;3.30;;
9465;SDS011;4771;48.726;9.006;2023-08-01T04:20:30;5.00;;;2.53;;
9465;SDS011;4771;48.726;9.006;2023-08-01T04:22:57;3.65;;;2.60;;
9465;SDS011;4771;48.726;9.006;2023-08-01T04:25:24;4.57;;;2.75;;
9465;SDS011;4771;48.726;9.006;2023-08-01T04:27:52;5.43;;;2.70;;
9465;SDS011;4771;48.726;9.006;2023-08-01T04:30:21;5.15;;;2.97;;
9465;SDS011;4771;48.726;9.006;2023-08-01T04:32:48;4.72;;;3.13;;
9465;SDS011;4771;48.726;9.006;2023-08-01T04:35:15;5.78;;;3.00;;
9465;SDS011;4771;48.726;9.006;2023-08-01T04:37:42;5.20;;;3.10;;
9465;SDS011;4771;48.726;9.006;2023-08-01T04:40:10;5.85;;;3.22;;
9465;SDS011;4771;48.726;9.006;2023-08-01T04:42:37;7.25;;;3.20;;
9465;SDS011;4771;48.726;9.006;2023-08-01T04:45:05;6.00;;;3.17;;
9465;SDS011;4771;48.726;9.006;2023-08-01T04:47:34;5.63;;;2.88;;
9465;SDS011;4771;48.726;9.006;2023-08-01T04:50:01;4.63;;;3.40;;
9465;SDS011;4771;48.726;9.006;2023-08-01T04:52:28;4.85;;;3.05;;
9465;SDS011;4771;48.726;9.006;2023-08-01T04:54:55;5.32;;;2.88;;
9465;SDS011;4771;48.726;9.006;2023-08-01T04:57:23;5.55;;;3.67;;
9465;SDS011;4771;48.726;9.006;2023-08-01T04:59:50;5.75;;;3.50;;
9465;SDS011;4771;48.726;9.006;2023-08-01T05:02:17;4.68;;;3.40;;
9465;SDS011;4771;48.726;9.006;2023-08-01T05:04:45;5.50;;;3.15;;
9465;SDS011;4771;48.726;9.006;2023-08-01T05:07:12;5.50;;;3.03;;
9465;SDS011;4771;48.726;9.006;2023-08-01T05:09:40;5.93;;;3.17;;
9465;SDS011;4771;48.726;9.006;2023-08-01T05:12:07;5.03;;;3.40;;
9465;SDS011;4771;48.726;9.006;2023-08-01T05:14:34;7.30;;;3.70;;
9465;SDS011;4771;48.726;9.006;2023-08-01T05:17:01;6.03;;;3.60;;
9465;SDS011;4771;48.726;9.006;2023-08-01T05:19:29;6.38;;;3.55;;
9465;SDS011;4771;48.726;9.006;2023-08-01T05:21:57;5.68;;;3.30;;
9465;SDS011;4771;48.726;9.006;2023-08-01T05:24:24;5.65;;;3.35;;
9465;SDS011;4771;48.726;9.006;2023-08-01T05:26:53;4.18;;;3.03;;
9465;SDS011;4771;48.726;9.006;2023-08-01T05:29:20;7.80;;;3.22;;
9465;SDS011;4771;48.726;9.006;2023-08-01T05:31:48;6.22;;;3.58;;
9465;SDS011;4771;48.726;9.006;2023-08-01T05:34:15;7.70;;;4.05;;
9465;SDS011;4771;48.726;9.006;2023-08-01T05:36:42;7.68;;;3.90;;
9465;SDS011;4771;48.726;9.006;2023-08-01T05:39:10;7.30;;;3.85;;
9465;SDS011;4771;48.726;9.006;2023-08-01T05:41:37;5.40;;;3.47;;
9465;SDS011;4771;48.726;9.006;2023-08-01T05:44:04;7.57;;;3.75;;
9465;SDS011;4771;48.726;9.006;2023-08-01T05:46:31;4.97;;;3.92;;
9465;SDS011;4771;48.726;9.006;2023-08-01T05:48:58;5.72;;;3.50;;
9465;SDS011;4771;48.726;9.006;2023-08-01T05:51:25;6.53;;;3.63;;
9465;SDS011;4771;48.726;9.006;2023-08-01T05:53:52;5.35;;;3.42;;
9465;SDS011;4771;48.726;9.006;2023-08-01T05:56:21;5.97;;;3.42;;
9465;SDS011;4771;48.726;9.006;2023-08-01T05:58:48;4.95;;;3.30;;
9465;SDS011;4771;48.726;9.006;2023-08-01T06:01:16;5.95;;;3.67;;
9465;SDS011;4771;48.726;9.006;2023-08-01T06:03:43;6.35;;;3.50;;
9465;SDS011;4771;48.726;9.006;2023-08-01T06:06:10;7.20;;;3.72;;
9465;SDS011;4771;48.726;9.006;2023-08-01T06:08:37;4.38;;;3.30;;
9465;SDS011;4771;48.726;9.006;2023-08-01T06:11:04;6.05;;;3.92;;
9465;SDS011;4771;48.726;9.006;2023-08-01T06:13:32;6.57;;;3.72;;
9465;SDS011;4771;48.726;9.006;2023-08-01T06:15:59;5.22;;;3.70;;
9465;SDS011;4771;48.726;9.006;2023-08-01T06:18:26;4.22;;;3.25;;
9465;SDS011;4771;48.726;9.006;2023-08-01T06:20:53;3.95;;;3.08;;
9465;SDS011;4771;48.726;9.006;2023-08-01T06:23:20;5.95;;;3.22;;
9465;SDS011;4771;48.726;9.006;2023-08-01T06:25:48;4.50;;;3.40;;
9465;SDS011;4771;48.726;9.006;2023-08-01T06:28:15;5.45;;;4.03;;
9465;SDS011;4771;48.726;9.006;2023-08-01T06:30:43;5.80;;;3.92;;
9465;SDS011;4771;48.726;9.006;2023-08-01T06:33:11;4.65;;;3.50;;
9465;SDS011;4771;48.726;9.006;2023-08-01T06:35:38;7.57;;;3.95;;
9465;SDS011;4771;48.726;9.006;2023-08-01T06:38:05;4.72;;;3.75;;
9465;SDS011;4771;48.726;9.006;2023-08-01T06:40:32;6.32;;;4.28;;
9465;SDS011;4771;48.726;9.006;2023-08-01T06:42:59;5.10;;;4.30;;
9465;SDS011;4771;48.726;9.006;2023-08-01T06:45:26;8.50;;;4.88;;
9465;SDS011;4771;48.726;9.006;2023-08-01T06:47:54;7.38;;;5.05;;
9465;SDS011;4771;48.726;9.006;2023-08-01T06:50:21;7.90;;;5.15;;
9465;SDS011;4771;48.726;9.006;2023-08-01T06:52:48;7.68;;;5.30;;
9465;SDS011;4771;48.726;9.006;2023-08-01T06:55:15;7.03;;;5.15;;
9465;SDS011;4771;48.726;9.006;2023-08-01T06:57:43;8.75;;;5.63;;
9465;SDS011;4771;48.726;9.006;2023-08-01T07:00:10;8.50;;;5.40;;
9465;SDS011;4771;48.726;9.006;2023-08-01T07:02:38;6.60;;;5.07;;
9465;SDS011;4771;48.726;9.006;2023-08-01T07:05:06;8.82;;;5.85;;
9465;SDS011;4771;48.726;9.006;2023-08-01T07:07:34;9.75;;;7.38;;
9465;SDS011;4771;48.726;9.006;2023-08-01T07:10:01;9.82;;;5.70;;
9465;SDS011;4771;48.726;9.006;2023-08-01T07:12:28;6.38;;;5.07;;
9465;SDS011;4771;48.726;9.006;2023-08-01T07:14:55;8.18;;;5.03;;
9465;SDS011;4771;48.726;9.006;2023-08-01T07:17:22;7.22;;;4.80;;
9465;SDS011;4771;48.726;9.006;2023-08-01T07:19:49;6.55;;;4.63;;
9465;SDS011;4771;48.726;9.006;2023-08-01T07:22:17;6.57;;;4.43;;
9465;SDS011;4771;48.726;9.006;2023-08-01T07:24:44;7.07;;;4.85;;
9465;SDS011;4771;48.726;9.006;2023-08-01T07:27:11;7.20;;;4.20;;
9465;SDS011;4771;48.726;9.006;2023-08-01T07:29:38;7.07;;;4.38;;
9465;SDS011;4771;48.726;9.006;2023-08-01T07:32:06;5.55;;;4.07;;
9465;SDS011;4771;48.726;9.006;2023-08-01T07:34:33;5.35;;;4.15;;
9465;SDS011;4771;48.726;9.006;2023-08-01T07:37:00;7.68;;;3.78;;
9465;SDS011;4771;48.726;9.006;2023-08-01T07:39:29;5.78;;;3.63;;
9465;SDS011;4771;48.726;9.006;2023-08-01T07:41:56;5.72;;;4.07;;
9465;SDS011;4771;48.726;9.006;2023-08-01T07:44:23;7.10;;;3.13;;
9465;SDS011;4771;48.726;9.006;2023-08-01T07:46:50;5.63;;;3.30;;
9465;SDS011;4771;48.726;9.006;2023-08-01T07:49:17;4.47;;;3.15;;
9465;SDS011;4771;48.726;9.006;2023-08-01T07:51:44;5.10;;;3.10;;
9465;SDS011;4771;48.726;9.006;2023-08-01T07:54:11;4.30;;;2.90;;
9465;SDS011;4771;48.726;9.006;2023-08-01T07:56:40;5.03;;;2.80;;
9465;SDS011;4771;48.726;9.006;2023-08-01T07:59:09;5.45;;;2.85;;
9465;SDS011;4771;48.726;9.006;2023-08-01T08:01:36;3.88;;;2.60;;
9465;SDS011;4771;48.726;9.006;2023-08-01T08:04:05;5.20;;;2.90;;
9465;SDS011;4771;48.726;9.006;2023-08-01T08:06:32;3.72;;;2.83;;
9465;SDS011;4771;48.726;9.006;2023-08-01T08:08:59;2.92;;;2.40;;
9465;SDS011;4771;48.726;9.006;2023-08-01T08:11:26;3.58;;;2.60;;
9465;SDS011;4771;48.726;9.006;2023-08-01T08:13:55;3.90;;;2.50;;
9465;SDS011;4771;48.726;9.006;2023-08-01T08:16:22;3.35;;;2.40;;
9465;SDS011;4771;48.726;9.006;2023-08-01T08:18:49;3.45;;;2.30;;
9465;SDS011;4771;48.726;9.006;2023-08-01T08:21:16;3.85;;;2.50;;
9465;SDS011;4771;48.726;9.006;2023-08-01T08:23:43;2.58;;;2.10;;
9465;SDS011;4771;48.726;9.006;2023-08-01T08:26:10;3.58;;;2.60;;
9465;SDS011;4771;48.726;9.006;2023-08-01T08:28:37;3.70;;;2.30;;
9465;SDS011;4771;48.726;9.006;2023-08-01T08:31:06;2.55;;;2.22;;
9465;SDS011;4771;48.726;9.006;2023-08-01T08:33:33;2.97;;;2.40;;
9465;SDS011;4771;48.726;9.006;2023-08-01T08:36:00;3.72;;;2.42;;
9465;SDS011;4771;48.726;9.006;2023-08-01T08:38:28;3.03;;;2.40;;
9465;SDS011;4771;48.726;9.006;2023-08-01T08:41:02;3.40;;;2.53;;
9465;SDS011;4771;48.726;9.006;2023-08-01T08:43:34;3.88;;;2.90;;
9465;SDS011;4771;48.726;9.006;2023-08-01T08:46:02;5.75;;;2.40;;
9465;SDS011;4771;48.726;9.006;2023-08-01T08:48:31;3.83;;;2.47;;
9465;SDS011;4771;48.726;9.006;2023-08-01T08:51:00;6.15;;;2.80;;
9465;SDS011;4771;48.726;9.006;2023-08-01T08:53:28;3.50;;;2.60;;
9465;SDS011;4771;48.726;9.006;2023-08-01T08:55:58;3.30;;;2.47;;
9465;SDS011;4771;48.726;9.006;2023-08-01T08:58:26;3.67;;;2.40;;
9465;SDS011;4771;48.726;9.006;2023-08-01T09:00:55;2.92;;;2.05;;
9465;SDS011;4771;48.726;9.006;2023-08-01T09:03:23;3.78;;;2.60;;
9465;SDS011;4771;48.726;9.006;2023-08-01T09:05:53;3.55;;;2.28;;
9465;SDS011;4771;48.726;9.006;2023-08-01T09:08:27;5.45;;;2.47;;
9465;SDS011;4771;48.726;9.006;2023-08-01T09:10:56;4.50;;;2.15;;
9465;SDS011;4771;48.726;9.006;2023-08-01T09:13:24;3.35;;;2.33;;
9465;SDS011;4771;48.726;9.006;2023-08-01T09:15:51;3.45;;;2.15;;
9465;SDS011;4771;48.726;9.006;2023-08-01T09:18:19;2.80;;;1.75;;
9465;SDS011;4771;48.726;9.006;2023-08-01T09:20:46;3.25;;;2.15;;
9465;SDS011;4771;48.726;9.006;2023-08-01T09:23:16;3.30;;;1.95;;
9465;SDS011;4771;48.726;9.006;2023-08-01T09:25:43;2.42;;;1.70;;
9465;SDS011;4771;48.726;9.006;2023-08-01T09:28:18;3.78;;;3.15;;
9465;SDS011;4771;48.726;9.006;2023-08-01T09:30:47;2.60;;;1.95;;
9465;SDS011;4771;48.726;9.006;2023-08-01T09:33:15;1.30;;;1.20;;
9465;SDS011;4771;48.726;9.006;2023-08-01T09:35:42;1.70;;;1.23;;
9465;SDS011;4771;48.726;9.006;2023-08-01T09:38:10;1.10;;;0.90;;
9465;SDS011;4771;48.726;9.006;2023-08-01T09:40:41;1.83;;;1.10;;
9465;SDS011;4771;48.726;9.006;2023-08-01T09:43:09;2.22;;;1.42;;
9465;SDS011;4771;48.726;9.006;2023-08-01T09:45:37;2.10;;;1.63;;
9465;SDS011;4771;48.726;9.006;2023-08-01T09:48:04;1.92;;;1.08;;
9465;SDS011;4771;48.726;9.006;2023-08-01T09:50:32;1.83;;;1.50;;
9465;SDS011;4771;48.726;9.006;2023-08-01T09:53:08;2.13;;;1.30;;
9465;SDS011;4771;48.726;9.006;2023-08-01T09:55:36;0.85;;;0.80;;
9465;SDS011;4771;48.726;9.006;2023-08-01T09:58:07;1.58;;;0.85;;
9465;SDS011;4771;48.726;9.006;2023-08-01T10:00:36;0.95;;;0.68;;
9465;SDS011;4771;48.726;9.006;2023-08-01T10:03:04;0.75;;;0.65;;
9465;SDS011;4771;48.726;9.006;2023-08-01T10:05:32;1.55;;;0.77;;
9465;SDS011;4771;48.726;9.006;2023-08-01T10:08:00;1.33;;;0.90;;
9465;SDS011;4771;48.726;9.006;2023-08-01T10:10:29;0.63;;;0.55;;
9465;SDS011;4771;48.726;9.006;2023-08-01T10:12:56;1.35;;;0.70;;
9465;SDS011;4771;48.726;9.006;2023-08-01T10:15:25;1.33;;;0.85;;
9465;SDS011;4771;48.726;9.006;2023-08-01T10:17:52;0.65;;;0.65;;
9465;SDS011;4771;48.726;9.006;2023-08-01T10:20:20;0.60;;;0.60;;
9465;SDS011;4771;48.726;9.006;2023-08-01T10:22:48;0.50;;;0.40;;
9465;SDS011;4771;48.726;9.006;2023-08-01T10:25:17;0.70;;;0.70;;
9465;SDS011;4771;48.726;9.006;2023-08-01T10:27:56;1.02;;;0.80;;
9465;SDS011;4771;48.726;9.006;2023-08-01T10:30:27;0.98;;;0.70;;
9465;SDS011;4771;48.726;9.006;2023-08-01T10:32:55;0.90;;;0.70;;
9465;SDS011;4771;48.726;9.006;2023-08-01T10:35:36;2.15;;;0.60;;
9465;SDS011;4771;48.726;9.006;2023-08-01T10:38:06;0.77;;;0.73;;
9465;SDS011;4771;48.726;9.006;2023-08-01T10:40:34;0.52;;;0.50;;
9465;SDS011;4771;48.726;9.006;2023-08-01T10:43:02;0.60;;;0.60;;
9465;SDS011;4771;48.726;9.006;2023-08-01T10:45:31;0.70;;;0.70;;
9465;SDS011;4771;48.726;9.006;2023-08-01T10:48:06;1.73;;;0.80;;
9465;SDS011;4771;48.726;9.006;2023-08-01T10:50:34;1.20;;;0.80;;
9465;SDS011;4771;48.726;9.006;2023-08-01T10:53:02;1.63;;;1.05;;
9465;SDS011;4771;48.726;9.006;2023-08-01T10:55:43;1.02;;;0.80;;
9465;SDS011;4771;48.726;9.006;2023-08-01T10:58:11;1.42;;;0.95;;
9465;SDS011;4771;48.726;9.006;2023-08-01T11:00:41;1.80;;;1.15;;
9465;SDS011;4771;48.726;9.006;2023-08-01T11:03:08;3.33;;;1.42;;
9465;SDS011;4771;48.726;9.006;2023-08-01T11:05:35;1.10;;;1.00;;
9465;SDS011;4771;48.726;9.006;2023-08-01T11:08:02;1.52;;;1.15;;
9465;SDS011;4771;48.726;9.006;2023-08-01T11:10:31;1.20;;;1.00;;
9465;SDS011;4771;48.726;9.006;2023-08-01T11:12:59;2.47;;;1.23;;
9465;SDS011;4771;48.726;9.006;2023-08-01T11:15:27;2.63;;;1.10;;
9465;SDS011;4771;48.726;9.006;2023-08-01T11:17:55;2.55;;;1.10;;
9465;SDS011;4771;48.726;9.006;2023-08-01T11:20:23;2.85;;;1.20;;
9465;SDS011;4771;48.726;9.006;2023-08-01T11:22:52;2.03;;;1.25;;
9465;SDS011;4771;48.726;9.006;2023-08-01T11:25:30;1.35;;;1.10;;
9465;SDS011;4771;48.726;9.006;2023-08-01T11:28:01;1.98;;;1.10;;
9465;SDS011;4771;48.726;9.006;2023-08-01T11:30:31;2.17;;;1.98;;
9465;SDS011;4771;48.726;9.006;2023-08-01T11:33:00;1.70;;;1.13;;
9465;SDS011;4771;48.726;9.006;2023-08-01T11:35:28;1.55;;;1.10;;
9465;SDS011;4771;48.726;9.006;2023-08-01T11:37:55;1.33;;;1.15;;
9465;SDS011;4771;48.726;9.006;2023-08-01T11:40:23;1.98;;;1.10;;
9465;SDS011;4771;48.726;9.006;2023-08-01T11:42:51;2.30;;;1.20;;
9465;SDS011;4771;48.726;9.006;2023-08-01T11:45:23;3.17;;;0.98;;
9465;SDS011;4771;48.726;9.006;2023-08-01T11:47:50;2.28;;;1.00;;
9465;SDS011;4771;48.726;9.006;2023-08-01T11:50:21;4.10;;;1.00;;
9465;SDS011;4771;48.726;9.006;2023-08-01T11:52:49;4.13;;;1.20;;
9465;SDS011;4771;48.726;9.006;2023-08-01T11:55:21;2.03;;;1.10;;
9465;SDS011;4771;48.726;9.006;2023-08-01T11:57:52;3.85;;;1.30;;
9465;SDS011;4771;48.726;9.006;2023-08-01T12:00:23;1.30;;;1.13;;
9465;SDS011;4771;48.726;9.006;2023-08-01T12:02:51;2.47;;;1.08;;
9465;SDS011;4771;48.726;9.006;2023-08-01T12:05:30;2.65;;;1.40;;
9465;SDS011;4771;48.726;9.006;2023-08-01T12:08:07;1.10;;;0.95;;
9465;SDS011;4771;48.726;9.006;2023-08-01T12:10:38;5.65;;;3.75;;
9465;SDS011;4771;48.726;9.006;2023-08-01T12:13:06;2.10;;;1.13;;
9465;SDS011;4771;48.726;9.006;2023-08-01T12:15:33;3.53;;;1.98;;
9465;SDS011;4771;48.726;9.006;2023-08-01T12:18:00;1.80;;;1.17;;
9465;SDS011;4771;48.726;9.006;2023-08-01T12:20:27;2.53;;;1.15;;
9465;SDS011;4771;48.726;9.006;2023-08-01T12:22:56;3.50;;;1.23;;
9465;SDS011;4771;48.726;9.006;2023-08-01T12:25:23;3.00;;;1.42;;
9465;SDS011;4771;48.726;9.006;2023-08-01T12:27:50;1.10;;;1.00;;
9465;SDS011;4771;48.726;9.006;2023-08-01T12:30:17;1.67;;;1.15;;
9465;SDS011;4771;48.726;9.006;2023-08-01T12:32:44;4.70;;;1.10;;
9465;SDS011;4771;48.726;9.006;2023-08-01T12:35:11;1.10;;;1.00;;
9465;SDS011;4771;48.726;9.006;2023-08-01T12:37:38;2.58;;;1.13;;
9465;SDS011;4771;48.726;9.006;2023-08-01T12:40:07;2.72;;;1.38;;
9465;SDS011;4771;48.726;9.006;2023-08-01T12:42:34;3.25;;;1.27;;
9465;SDS011;4771;48.726;9.006;2023-08-01T12:45:02;3.03;;;1.30;;
9465;SDS011;4771;48.726;9.006;2023-08-01T12:47:29;1.90;;;1.17;;
9465;SDS011;4771;48.726;9.006;2023-08-01T12:49:56;1.55;;;0.95;;
9465;SDS011;4771;48.726;9.006;2023-08-01T12:52:24;3.90;;;1.42;;
9465;SDS011;4771;48.726;9.006;2023-08-01T12:54:51;2.15;;;1.33;;
9465;SDS011;4771;48.726;9.006;2023-08-01T12:57:20;1.65;;;1.30;;
9465;SDS011;4771;48.726;9.006;2023-08-01T12:59:47;2.20;;;1.40;;
9465;SDS011;4771;48.726;9.006;2023-08-01T13:02:14;2.53;;;1.30;;
9465;SDS011;4771;48.726;9.006;2023-08-01T13:04:41;3.88;;;1.38;;
9465;SDS011;4771;48.726;9.006;2023-08-01T13:07:08;1.80;;;1.30;;
9465;SDS011;4771;48.726;9.006;2023-08-01T13:09:35;3.10;;;1.17;;
9465;SDS011;4771;48.726;9.006;2023-08-01T13:12:03;5.00;;;1.35;;
9465;SDS011;4771;48.726;9.006;2023-08-01T13:14:32;2.97;;;1.45;;
9465;SDS011;4771;48.726;9.006;2023-08-01T13:16:59;2.08;;;1.30;;
9465;SDS011;4771;48.726;9.006;2023-08-01T13:19:26;1.38;;;1.27;;
9465;SDS011;4771;48.726;9.006;2023-08-01T13:21:53;6.18;;;4.32;;
9465;SDS011;4771;48.726;9.006;2023-08-01T13:24:20;2.10;;;1.73;;
9465;SDS011;4771;48.726;9.006;2023-08-01T13:26:47;1.77;;;1.40;;
9465;SDS011;4771;48.726;9.006;2023-08-01T13:29:15;3.42;;;1.23;;
9465;SDS011;4771;48.726;9.006;2023-08-01T13:31:43;4.90;;;1.30;;
9465;SDS011;4771;48.726;9.006;2023-08-01T13:34:10;1.80;;;1.30;;
9465;SDS011;4771;48.726;9.006;2023-08-01T13:36:37;2.15;;;1.27;;
9465;SDS011;4771;48.726;9.006;2023-08-01T13:39:04;4.38;;;1.40;;
9465;SDS011;4771;48.726;9.006;2023-08-01T13:41:31;2.80;;;1.35;;
9465;SDS011;4771;48.726;9.006;2023-08-01T13:43:59;3.45;;;1.75;;
9465;SDS011;4771;48.726;9.006;2023-08-01T13:46:27;2.13;;;1.30;;
9465;SDS011;4771;48.726;9.006;2023-08-01T13:48:56;2.05;;;1.45;;
9465;SDS011;4771;48.726;9.006;2023-08-01T13:51:23;1.95;;;1.40;;
9465;SDS011;4771;48.726;9.006;2023-08-01T13:53:50;1.60;;;1.17;;
9465;SDS011;4771;48.726;9.006;2023-08-01T13:56:17;3.47;;;1.58;;
9465;SDS011;4771;48.726;9.006;2023-08-01T13:58:44;2.83;;;1.60;;
9465;SDS011;4771;48.726;9.006;2023-08-01T14:01:11;2.78;;;1.30;;
9465;SDS011;4771;48.726;9.006;2023-08-01T14:03:38;1.95;;;1.17;;
9465;SDS011;4771;48.726;9.006;2023-08-01T14:06:08;2.72;;;1.10;;
9465;SDS011;4771;48.726;9.006;2023-08-01T14:08:36;1.90;;;1.38;;
9465;SDS011;4771;48.726;9.006;2023-08-01T14:11:04;2.75;;;1.50;;
9465;SDS011;4771;48.726;9.006;2023-08-01T14:13:32;3.45;;;1.50;;
9465;SDS011;4771;48.726;9.006;2023-08-01T14:16:00;3.88;;;1.40;;
9465;SDS011;4771;48.726;9.006;2023-08-01T14:18:28;2.38;;;1.40;;
9465;SDS011;4771;48.726;9.006;2023-08-01T14:20:55;3.25;;;2.60;;
9465;SDS011;4771;48.726;9.006;2023-08-01T14:23:23;3.75;;;2.00;;
9465;SDS011;4771;48.726;9.006;2023-08-01T14:25:50;2.08;;;1.40;;
9465;SDS011;4771;48.726;9.006;2023-08-01T14:28:17;2.38;;;1.30;;
9465;SDS011;4771;48.726;9.006;2023-08-01T14:30:44;2.35;;;1.20;;
9465;SDS011;4771;48.726;9.006;2023-08-01T14:33:11;2.05;;;1.30;;
9465;SDS011;4771;48.726;9.006;2023-08-01T14:35:39;1.85;;;1.40;;
9465;SDS011;4771;48.726;9.006;2023-08-01T14:38:07;1.60;;;1.35;;
9465;SDS011;4771;48.726;9.006;2023-08-01T14:40:36;2.35;;;1.17;;
9465;SDS011;4771;48.726;9.006;2023-08-01T14:43:04;4.85;;;1.33;;
9465;SDS011;4771;48.726;9.006;2023-08-01T14:45:31;3.25;;;1.30;;
9465;SDS011;4771;48.726;9.006;2023-08-01T14:47:58;2.03;;;1.30;;
9465;SDS011;4771;48.726;9.006;2023-08-01T14:50:25;2.70;;;1.25;;
9465;SDS011;4771;48.726;9.006;2023-08-01T14:52:52;3.35;;;1.30;;
9465;SDS011;4771;48.726;9.006;2023-08-01T14:55:19;3.75;;;1.38;;
9465;SDS011;4771;48.726;9.006;2023-08-01T14:57:48;1.30;;;1.20;;
9465;SDS011;4771;48.726;9.006;2023-08-01T15:00:15;2.30;;;1.33;;
9465;SDS011;4771;48.726;9.006;2023-08-01T15:02:42;4.60;;;3.78;;
9465;SDS011;4771;48.726;9.006;2023-08-01T15:05:09;3.70;;;2.45;;
9465;SDS011;4771;48.726;9.006;2023-08-01T15:07:38;3.80;;;2.28;;
9465;SDS011;4771;48.726;9.006;2023-08-01T15:10:05;2.00;;;1.45;;
9465;SDS011;4771;48.726;9.006;2023-08-01T15:12:33;1.60;;;1.40;;
9465;SDS011;4771;48.726;9.006;2023-08-01T15:15:01;4.47;;;1.30;;
9465;SDS011;4771;48.726;9.006;2023-08-01T15:17:29;2.30;;;1.30;;
9465;SDS011;4771;48.726;9.006;2023-08-01T15:19:56;8.88;;;6.50;;